Ana Sayfa
METAR-TAF:

METAR-TAF

Havaalanları :

Hickory, Kuzey Carolina, Amerika Birleşik Devletleri

Enlem: 35-44-32N, Boylam: 081-22-56W, yükseklik: 362 m

Güncel hava durumu gözlemi

Rapor saat 02:53 UTC de 59 dakika önce yapıldı.
Sakin rüzgar
Sıcaklık 15°C
Nem 88%
Basınç 1019 hPa
Görüş mesafesi: 16.1 km
Açık gökyüzü

METAR: KHKY 070253Z AUTO 00000KT 10SM CLR 15/13 A3010 RMK AO2 SLP177 T01500133 51013

Saat: 23:52 (03:52 UTC)

Tahmin

Rapor saat 23:29 UTC de 4 saat ve 23 dakika önce yapıldı.
Ayın 07'si saat 00 UTC'den ayın 07'si saat 24 UTC'ye kadar geçerli Tahmin
Rüzgar değişken yönden 2 kt
Görüş mesafesi: 10 km
Açık gökyüzü
Ayın 07'si saat 1600 UTC'den
Rüzgar batı/güneybatıdan 6 kt
Görüş mesafesi: 10 km
25000 ft yükseklikte az bulutlu
Ayın 07'si saat 2300 UTC'den
Rüzgar kuzey/kuzeybatıdan 3 kt
Görüş mesafesi: 10 km
20000 ft yükseklikte az bulutlu

TAF: KHKY 062329Z 0700/0724 VRB02KT P6SM SKC FM071600 25006KT P6SM FEW250 FM072300 33003KT P6SM FEW200

4.000'den fazla havaalanı için hava durumu gözlemleri ve tahminleri (METAR ve TAF raporları).

Kullanılabilir istasyonlar harita üzerinde sarı ve kırmızı noktalarla gösterilir.

İstasyonun adını görmek için fareyi noktanın üzerinde gezdirin.

Sonrasında hava gözlem ve tahminlerini görmek için tıklayın.

Haritayı değiştirmek için: yaklaştırmak için siyah artı işaretli yeşil düğmeye ve uzaklaştırmak için de eksi işaretli düğmeye hızla tıklayın; bitişik haritalar için yeşil okları kullanın.


METAR-TAF: